Time;durP1;ratioP1;P1;durP2;ratioP2;P2;SDS_P1;SDS_P2;PMS_P1;PMS_P2;Temp;Humidity;BMP_temperature;BMP_pressure;BME280_temperature;BME280_humidity;BME280_pressure;Samples;Min_cycle;Max_cycle;Signal;HPM_P1;HPM_P2
2022/02/28 00:00:49;;;;;;;7.37;5.67;;;3.70;62.60;;;;;;5019610;28;20225;-90
2022/02/28 00:03:15;;;;;;;6.57;5.93;;;3.80;61.90;;;;;;5016289;28;20211;-88
2022/02/28 00:05:41;;;;;;;6.57;5.83;;;3.70;61.00;;;;;;5018918;28;20212;-89
2022/02/28 00:08:07;;;;;;;6.17;5.57;;;3.70;62.70;;;;;;5021260;28;20224;-88
2022/02/28 00:10:33;;;;;;;8.47;5.70;;;3.80;62.70;;;;;;5018298;28;20198;-88
2022/02/28 00:12:58;;;;;;;7.23;6.40;;;3.80;63.50;;;;;;5000017;28;20236;-89
2022/02/28 00:15:24;;;;;;;6.60;5.90;;;3.80;61.60;;;;;;5021574;28;20225;-89
2022/02/28 00:17:50;;;;;;;8.67;6.30;;;3.70;62.80;;;;;;4999349;28;20185;-88
2022/02/28 00:20:16;;;;;;;6.90;5.47;;;3.50;62.00;;;;;;5008319;28;20239;-89
2022/02/28 00:22:42;;;;;;;6.27;5.50;;;3.20;63.50;;;;;;5020676;28;20197;-89
2022/02/28 00:25:10;;;;;;;7.17;5.70;;;3.20;64.80;;;;;;5019960;28;20213;-88
2022/02/28 00:27:36;;;;;;;7.20;5.60;;;3.20;64.80;;;;;;5016371;28;20304;-88
2022/02/28 00:30:05;;;;;;;8.13;5.33;;;3.30;64.10;;;;;;5015541;28;20237;-89
2022/02/28 00:32:30;;;;;;;7.63;5.90;;;3.40;63.90;;;;;;5022833;28;20221;-88
2022/02/28 00:34:56;;;;;;;8.33;6.00;;;3.50;63.30;;;;;;5015332;28;20255;-88
2022/02/28 00:37:22;;;;;;;6.53;5.83;;;3.40;62.80;;;;;;5016947;28;20594;-89
2022/02/28 00:39:48;;;;;;;6.10;5.40;;;3.40;63.40;;;;;;5018382;28;20201;-88
2022/02/28 00:42:14;;;;;;;6.10;5.33;;;3.50;64.10;;;;;;5017350;28;20222;-89
2022/02/28 00:44:40;;;;;;;5.23;4.70;;;3.50;63.00;;;;;;5015737;28;20240;-88
2022/02/28 00:47:06;;;;;;;5.73;5.10;;;3.60;64.50;;;;;;5016624;28;20493;-88
2022/02/28 00:49:33;;;;;;;5.97;5.30;;;3.70;64.30;;;;;;5025616;28;20188;-88
2022/02/28 00:51:59;;;;;;;6.37;5.73;;;3.90;64.60;;;;;;5011715;28;20555;-88
2022/02/28 00:54:27;;;;;;;6.87;5.30;;;4.00;63.70;;;;;;5019512;28;20209;-88
2022/02/28 00:56:54;;;;;;;6.27;5.77;;;4.10;63.60;;;;;;5019189;28;20544;-89
2022/02/28 00:59:19;;;;;;;7.13;5.90;;;4.20;62.80;;;;;;5017157;28;20237;-88
2022/02/28 01:01:45;;;;;;;6.30;5.70;;;4.20;61.30;;;;;;4997247;28;20198;-88
2022/02/28 01:04:11;;;;;;;6.80;5.90;;;4.20;61.70;;;;;;5012986;28;20608;-88
2022/02/28 01:06:37;;;;;;;5.97;5.33;;;4.10;60.50;;;;;;4998542;28;20193;-88
2022/02/28 01:09:04;;;;;;;7.97;6.03;;;3.90;60.60;;;;;;4996236;28;20216;-88
2022/02/28 01:11:30;;;;;;;7.13;5.30;;;3.70;61.90;;;;;;5007727;28;20255;-89
2022/02/28 01:13:57;;;;;;;6.57;5.77;;;3.40;63.20;;;;;;5020085;28;20191;-88
2022/02/28 01:16:23;;;;;;;5.97;5.37;;;3.00;64.70;;;;;;5012122;28;20214;-88
2022/02/28 01:18:49;;;;;;;7.13;5.77;;;2.60;67.20;;;;;;4997675;28;20564;-88
2022/02/28 01:21:14;;;;;;;6.93;5.90;;;2.20;69.20;;;;;;5021357;28;20243;-88
2022/02/28 01:23:40;;;;;;;6.20;5.37;;;2.10;71.20;;;;;;5014945;28;20213;-88
2022/02/28 01:26:06;;;;;;;6.30;5.47;;;2.00;72.10;;;;;;5018681;28;20975;-89
2022/02/28 01:28:32;;;;;;;7.13;5.57;;;2.00;72.70;;;;;;4997970;28;20276;-89
2022/02/28 01:30:57;;;;;;;5.30;4.67;;;2.10;72.80;;;;;;4996808;28;20393;-88
2022/02/28 01:33:23;;;;;;;6.77;4.57;;;2.30;72.70;;;;;;4996947;28;20189;-88
2022/02/28 01:35:49;;;;;;;6.40;4.80;;;2.50;72.70;;;;;;5020878;28;20359;-88
2022/02/28 01:38:14;;;;;;;6.97;5.20;;;2.60;71.90;;;;;;5015767;28;20194;-88
2022/02/28 01:40:40;;;;;;;6.43;5.10;;;2.70;71.40;;;;;;5015635;28;20189;-88
2022/02/28 01:43:06;;;;;;;5.90;4.87;;;2.90;70.90;;;;;;5010331;28;20224;-88
2022/02/28 01:45:32;;;;;;;5.53;5.03;;;2.90;69.50;;;;;;5022619;28;20220;-89
2022/02/28 01:47:58;;;;;;;5.00;4.47;;;3.00;69.20;;;;;;4992914;28;20704;-88
2022/02/28 01:50:25;;;;;;;5.53;4.93;;;3.10;68.90;;;;;;5016223;28;20194;-88
2022/02/28 01:52:51;;;;;;;5.83;4.87;;;3.30;68.40;;;;;;5017016;28;20181;-89
2022/02/28 01:55:19;;;;;;;5.63;4.77;;;3.20;68.10;;;;;;4996219;28;20216;-89
2022/02/28 01:57:45;;;;;;;5.13;4.40;;;3.20;67.80;;;;;;5015545;28;20263;-88
2022/02/28 02:00:13;;;;;;;5.87;5.13;;;3.20;67.50;;;;;;5018262;28;20201;-89
2022/02/28 02:02:39;;;;;;;5.30;4.80;;;3.10;68.00;;;;;;5018635;28;20697;-89
2022/02/28 02:05:06;;;;;;;6.20;5.57;;;3.10;68.50;;;;;;5011058;28;20248;-89
2022/02/28 02:07:32;;;;;;;6.07;5.30;;;3.10;67.70;;;;;;5031133;28;20220;-89
2022/02/28 02:09:58;;;;;;;6.20;4.80;;;3.10;68.30;;;;;;5034731;28;20191;-90
2022/02/28 02:12:28;;;;;;;6.00;5.40;;;3.10;68.50;;;;;;5012617;28;20288;-88
2022/02/28 02:14:55;;;;;;;5.60;4.77;;;3.20;67.70;;;;;;4990925;28;20315;-88
2022/02/28 02:17:21;;;;;;;7.13;5.40;;;3.00;67.40;;;;;;5017955;28;20246;-88
2022/02/28 02:19:51;;;;;;;6.20;5.03;;;3.00;66.80;;;;;;5014189;28;20825;-89
2022/02/28 02:22:20;;;;;;;5.63;5.00;;;3.00;67.60;;;;;;5013439;28;20193;-88
2022/02/28 02:24:46;;;;;;;5.47;4.97;;;2.90;68.00;;;;;;5014702;28;20236;-89
2022/02/28 02:27:12;;;;;;;6.00;5.03;;;2.90;68.00;;;;;;5016846;28;20232;-88
2022/02/28 02:29:38;;;;;;;6.40;5.27;;;2.90;68.70;;;;;;4995817;28;20193;-89
2022/02/28 02:32:13;;;;;;;6.43;5.33;;;3.00;69.30;;;;;;5019497;28;20675;-88
2022/02/28 02:34:38;;;;;;;6.13;5.40;;;3.10;69.10;;;;;;5016717;28;20209;-89
2022/02/28 02:37:04;;;;;;;7.63;5.83;;;3.00;68.20;;;;;;5010689;28;20557;-88
2022/02/28 02:39:30;;;;;;;6.73;5.87;;;3.10;68.00;;;;;;5017508;28;20664;-88
2022/02/28 02:41:56;;;;;;;6.50;5.73;;;3.10;68.00;;;;;;5025341;28;20193;-89
2022/02/28 02:44:28;;;;;;;5.83;5.20;;;3.10;68.60;;;;;;5009869;28;20205;-88
2022/02/28 02:46:54;;;;;;;8.03;6.00;;;3.20;68.40;;;;;;5016010;28;20227;-88
2022/02/28 02:49:20;;;;;;;6.37;5.67;;;3.30;68.30;;;;;;4998322;28;20248;-89
2022/02/28 02:51:47;;;;;;;8.00;6.00;;;3.30;68.40;;;;;;4997788;28;20216;-88
2022/02/28 02:54:13;;;;;;;7.07;5.97;;;3.30;67.60;;;;;;5014489;28;20200;-89
2022/02/28 02:56:39;;;;;;;7.17;5.87;;;3.50;67.40;;;;;;4997316;28;20217;-89
2022/02/28 02:59:06;;;;;;;6.40;5.80;;;3.50;67.30;;;;;;5017423;28;20663;-89
2022/02/28 03:01:32;;;;;;;6.97;5.30;;;3.50;66.90;;;;;;5013511;28;20671;-89
2022/02/28 03:03:58;;;;;;;6.00;5.37;;;3.50;66.60;;;;;;4997988;28;20236;-89
2022/02/28 03:06:24;;;;;;;6.60;6.00;;;3.60;66.50;;;;;;5019869;28;20212;-88
2022/02/28 03:08:50;;;;;;;6.43;5.80;;;3.50;66.50;;;;;;5010413;28;20205;-88
2022/02/28 03:11:16;;;;;;;7.97;6.43;;;3.50;65.90;;;;;;5015611;28;20197;-88
2022/02/28 03:13:41;;;;;;;6.10;5.50;;;3.40;64.70;;;;;;5022023;28;20249;-88
2022/02/28 03:16:07;;;;;;;6.83;5.93;;;3.00;65.90;;;;;;4995935;28;20244;-89
2022/02/28 03:18:33;;;;;;;7.77;5.40;;;2.50;68.40;;;;;;5010778;28;20209;-88
2022/02/28 03:20:58;;;;;;;6.60;5.37;;;2.40;69.50;;;;;;5016202;28;20220;-88
2022/02/28 03:23:24;;;;;;;6.80;5.67;;;2.30;70.90;;;;;;5012518;28;20217;-89
2022/02/28 03:25:51;;;;;;;6.10;5.50;;;2.40;71.60;;;;;;5014830;28;20212;-89
2022/02/28 03:28:17;;;;;;;6.23;5.27;;;2.50;71.40;;;;;;5013569;28;20302;-89
2022/02/28 03:30:43;;;;;;;7.50;5.70;;;2.60;70.60;;;;;;5017051;28;20656;-88
2022/02/28 03:33:09;;;;;;;7.90;6.27;;;2.60;70.30;;;;;;5009618;28;20194;-88
2022/02/28 03:35:35;;;;;;;8.10;6.37;;;2.70;69.00;;;;;;4997357;28;20210;-89
2022/02/28 03:38:01;;;;;;;7.20;6.50;;;2.50;68.90;;;;;;5023936;28;20196;-88
2022/02/28 03:40:26;;;;;;;6.60;5.87;;;2.20;69.80;;;;;;5013883;28;20438;-88
2022/02/28 03:42:52;;;;;;;7.67;6.10;;;2.10;71.20;;;;;;5014823;28;20262;-89
2022/02/28 03:45:18;;;;;;;7.23;6.50;;;2.00;71.90;;;;;;5014071;28;20553;-91
2022/02/28 03:47:44;;;;;;;7.23;6.33;;;1.90;71.60;;;;;;5013358;28;20205;-89
2022/02/28 03:50:10;;;;;;;7.47;6.07;;;1.90;72.60;;;;;;5011275;28;20244;-88
2022/02/28 03:52:36;;;;;;;8.20;6.17;;;1.80;72.70;;;;;;5016092;28;20334;-89
2022/02/28 03:55:03;;;;;;;8.40;6.10;;;2.00;72.70;;;;;;5019046;28;20204;-88
2022/02/28 03:57:29;;;;;;;9.27;6.20;;;2.10;72.80;;;;;;5016563;28;20196;-88
2022/02/28 03:59:56;;;;;;;8.00;6.90;;;2.10;71.70;;;;;;5006978;28;20683;-89
2022/02/28 04:02:21;;;;;;;7.50;6.13;;;2.20;71.60;;;;;;5021322;28;20228;-88
2022/02/28 04:04:47;;;;;;;7.73;6.17;;;2.20;72.10;;;;;;4997155;28;20248;-89
2022/02/28 04:07:13;;;;;;;8.03;6.47;;;2.30;71.60;;;;;;5015842;28;20245;-88
2022/02/28 04:09:39;;;;;;;7.07;6.20;;;2.30;71.50;;;;;;5002245;28;20220;-88
2022/02/28 04:12:06;;;;;;;7.13;6.43;;;2.30;71.60;;;;;;5016241;28;20185;-89
2022/02/28 04:14:32;;;;;;;6.60;6.00;;;2.30;71.10;;;;;;4998532;28;20220;-89
2022/02/28 04:16:58;;;;;;;7.70;5.97;;;2.30;71.30;;;;;;5002346;28;20614;-89
2022/02/28 04:19:24;;;;;;;7.50;6.23;;;2.20;71.40;;;;;;5016141;28;20197;-88
2022/02/28 04:21:50;;;;;;;7.23;6.50;;;2.10;71.30;;;;;;5015518;28;20193;-88
2022/02/28 04:24:16;;;;;;;8.23;6.70;;;2.00;71.00;;;;;;5032969;28;20213;-89
2022/02/28 04:26:44;;;;;;;8.30;6.93;;;1.90;71.70;;;;;;5010765;28;20652;-88
2022/02/28 04:29:10;;;;;;;9.53;7.03;;;1.90;72.20;;;;;;4999825;28;20579;-88
2022/02/28 04:31:36;;;;;;;8.87;7.17;;;1.90;72.90;;;;;;5016339;28;20620;-89
2022/02/28 04:34:02;;;;;;;10.83;8.00;;;1.80;72.70;;;;;;5021671;28;20206;-89
2022/02/28 04:36:27;;;;;;;9.10;7.63;;;1.90;73.00;;;;;;5003990;28;20193;-89
2022/02/28 04:38:53;;;;;;;10.20;6.83;;;1.80;72.50;;;;;;5021256;28;20285;-89
2022/02/28 04:41:19;;;;;;;8.23;7.30;;;1.80;73.10;;;;;;5003965;28;20560;-90
2022/02/28 04:43:44;;;;;;;9.67;7.40;;;1.60;73.70;;;;;;5019226;28;20278;-89
2022/02/28 04:46:10;;;;;;;7.20;6.50;;;1.60;73.40;;;;;;4980198;28;20230;-89
2022/02/28 04:48:36;;;;;;;8.90;7.43;;;1.40;74.00;;;;;;4998189;28;20217;-89
2022/02/28 04:51:01;;;;;;;8.07;7.10;;;1.30;74.90;;;;;;5001566;28;21145;-88
2022/02/28 04:53:27;;;;;;;15.23;9.43;;;1.30;75.70;;;;;;5017053;28;20196;-88
2022/02/28 04:55:53;;;;;;;9.57;6.97;;;1.30;76.00;;;;;;4999465;28;20553;-89
2022/02/28 04:58:19;;;;;;;9.07;7.30;;;1.40;75.40;;;;;;5023620;28;20193;-89
2022/02/28 05:00:45;;;;;;;8.83;7.77;;;1.50;75.00;;;;;;5002301;28;20193;-89
2022/02/28 05:03:10;;;;;;;10.70;6.77;;;1.40;74.30;;;;;;5014503;28;20296;-89
2022/02/28 05:05:36;;;;;;;16.03;10.63;;;1.50;75.00;;;;;;5002004;28;20700;-89
2022/02/28 05:08:02;;;;;;;10.60;9.17;;;1.50;73.80;;;;;;5020770;28;20211;-89
2022/02/28 05:10:28;;;;;;;9.47;8.23;;;1.60;74.60;;;;;;4996583;28;20614;-88
2022/02/28 05:12:53;;;;;;;11.83;7.67;;;1.50;73.70;;;;;;5013612;28;20198;-89
2022/02/28 05:15:19;;;;;;;8.20;7.37;;;1.50;73.90;;;;;;5003703;28;20228;-88
2022/02/28 05:17:45;;;;;;;8.87;7.97;;;1.50;75.50;;;;;;4996572;28;20700;-89
2022/02/28 05:20:11;;;;;;;11.93;8.50;;;1.60;73.60;;;;;;5015583;28;20653;-90
2022/02/28 05:22:37;;;;;;;8.77;7.87;;;1.60;73.60;;;;;;5017233;28;20193;-89
2022/02/28 05:25:03;;;;;;;10.50;9.03;;;1.60;73.80;;;;;;5012020;28;20225;-90
2022/02/28 05:27:49;;;;;;;9.30;8.40;;;1.60;73.50;;;;;;5011785;28;20243;-90
2022/02/28 05:30:15;;;;;;;14.47;10.97;;;1.60;72.80;;;;;;5016740;28;20215;-89
2022/02/28 05:32:41;;;;;;;10.57;8.53;;;1.60;72.40;;;;;;5019052;28;20229;-88
2022/02/28 05:35:12;;;;;;;10.13;8.33;;;1.60;72.60;;;;;;5012723;28;20216;-89
2022/02/28 05:37:39;;;;;;;12.67;11.37;;;1.50;72.90;;;;;;5002970;28;20201;-89
2022/02/28 05:40:07;;;;;;;12.67;9.37;;;1.50;73.30;;;;;;4998497;28;20236;-89
2022/02/28 05:42:34;;;;;;;13.63;11.77;;;1.40;73.00;;;;;;4999970;28;20747;-89
2022/02/28 05:44:59;;;;;;;12.23;8.77;;;1.40;73.60;;;;;;5010892;28;20209;-88
2022/02/28 05:47:25;;;;;;;13.13;10.63;;;1.30;73.50;;;;;;4997084;28;20296;-88
2022/02/28 05:49:51;;;;;;;16.90;12.70;;;1.20;74.50;;;;;;4999252;28;20469;-88
2022/02/28 05:52:17;;;;;;;13.07;9.53;;;1.20;74.10;;;;;;5017516;28;20216;-88
2022/02/28 05:54:42;;;;;;;14.50;11.20;;;1.20;74.40;;;;;;5015257;28;20217;-88
2022/02/28 05:57:08;;;;;;;20.30;12.70;;;1.20;74.20;;;;;;4999694;28;20252;-89
2022/02/28 05:59:34;;;;;;;19.00;14.13;;;1.20;73.70;;;;;;4998535;28;20230;-89
2022/02/28 06:02:00;;;;;;;15.73;12.20;;;1.10;74.00;;;;;;5012000;28;20209;-89
2022/02/28 06:04:26;;;;;;;11.13;9.10;;;1.10;74.80;;;;;;5010052;28;20217;-88
2022/02/28 06:06:51;;;;;;;10.70;9.23;;;1.10;75.10;;;;;;5018870;28;20236;-89
2022/02/28 06:09:17;;;;;;;10.87;9.00;;;1.00;75.30;;;;;;4999482;28;20196;-88
2022/02/28 06:11:43;;;;;;;8.97;8.07;;;0.90;76.60;;;;;;5010773;28;20727;-89
2022/02/28 06:14:08;;;;;;;10.57;8.97;;;0.90;76.90;;;;;;5018492;28;20196;-89
2022/02/28 06:16:34;;;;;;;11.07;9.60;;;0.90;77.00;;;;;;5001006;28;20571;-89
2022/02/28 06:19:00;;;;;;;11.03;8.97;;;0.90;76.50;;;;;;5013226;28;20198;-88
2022/02/28 06:21:25;;;;;;;9.73;8.67;;;0.80;76.50;;;;;;5010355;28;20201;-88
2022/02/28 06:23:51;;;;;;;10.20;8.03;;;0.70;77.00;;;;;;4993845;28;20189;-89
2022/02/28 06:26:19;;;;;;;9.87;8.03;;;0.70;77.50;;;;;;5011998;28;20359;-88
2022/02/28 06:28:45;;;;;;;9.10;8.07;;;0.70;77.70;;;;;;5002946;28;20217;-90
2022/02/28 06:31:10;;;;;;;11.67;8.87;;;0.70;77.80;;;;;;5019560;28;20181;-88
2022/02/28 06:33:36;;;;;;;9.13;7.83;;;0.80;77.70;;;;;;5019109;28;20541;-89
2022/02/28 06:36:03;;;;;;;9.47;8.33;;;0.90;77.80;;;;;;5001409;28;20680;-88
2022/02/28 06:38:28;;;;;;;10.20;7.27;;;1.00;76.20;;;;;;5024574;28;20192;-89
2022/02/28 06:40:54;;;;;;;9.03;8.13;;;1.10;76.00;;;;;;5028197;28;20193;-88
2022/02/28 06:43:21;;;;;;;10.80;8.33;;;1.20;76.40;;;;;;5025818;28;20217;-88
2022/02/28 06:45:48;;;;;;;8.70;7.63;;;1.30;76.50;;;;;;5006474;28;20221;-88
2022/02/28 06:48:15;;;;;;;11.73;8.77;;;1.50;74.60;;;;;;4993914;28;20263;-89
2022/02/28 06:50:41;;;;;;;9.23;8.20;;;1.50;73.80;;;;;;5013684;28;20188;-89
2022/02/28 06:53:07;;;;;;;12.30;7.77;;;1.50;73.20;;;;;;5018033;28;20246;-89
2022/02/28 06:55:33;;;;;;;8.30;7.50;;;1.50;72.80;;;;;;5018265;28;20261;-88
2022/02/28 06:57:58;;;;;;;8.90;8.00;;;1.60;73.10;;;;;;4985256;28;20699;-89
2022/02/28 07:00:24;;;;;;;11.37;9.50;;;1.60;73.60;;;;;;5015306;28;20208;-88
2022/02/28 07:02:50;;;;;;;10.67;8.93;;;1.40;73.40;;;;;;4998536;28;20197;-89
2022/02/28 07:05:15;;;;;;;11.67;8.43;;;1.50;73.30;;;;;;5013492;28;20586;-88
2022/02/28 07:07:41;;;;;;;10.10;9.00;;;1.60;73.80;;;;;;5009117;28;20217;-89
2022/02/28 07:10:12;;;;;;;10.10;8.70;;;1.60;72.10;;;;;;5000757;28;20197;-88
2022/02/28 07:12:38;;;;;;;12.13;9.17;;;1.60;72.60;;;;;;5008441;28;20197;-88
2022/02/28 07:15:05;;;;;;;9.63;8.63;;;1.60;72.40;;;;;;5011596;28;20221;-90
2022/02/28 07:17:32;;;;;;;13.77;9.50;;;1.60;72.40;;;;;;5018408;28;20197;-88
2022/02/28 07:19:58;;;;;;;30.20;11.47;;;1.60;73.10;;;;;;5013504;28;20232;-88
2022/02/28 07:22:23;;;;;;;14.60;9.70;;;1.50;72.50;;;;;;4996956;28;20224;-88
2022/02/28 07:24:49;;;;;;;12.67;10.67;;;1.60;73.30;;;;;;4997090;28;20276;-88
2022/02/28 07:27:15;;;;;;;15.80;12.80;;;1.60;73.50;;;;;;4992411;28;20279;-89
2022/02/28 07:29:40;;;;;;;12.43;9.97;;;1.70;72.20;;;;;;4996484;28;20208;-88
2022/02/28 07:32:06;;;;;;;17.67;13.57;;;1.70;72.30;;;;;;5014860;28;20197;-88
2022/02/28 07:34:32;;;;;;;14.10;10.20;;;1.80;71.70;;;;;;5026498;28;20212;-88
2022/02/28 07:36:57;;;;;;;11.33;9.33;;;1.90;72.00;;;;;;4978068;28;20228;-88
2022/02/28 07:39:23;;;;;;;11.17;9.40;;;2.00;71.50;;;;;;5015988;28;20198;-88
2022/02/28 07:41:49;;;;;;;10.93;8.70;;;2.10;71.30;;;;;;5017914;28;20564;-89
2022/02/28 07:44:15;;;;;;;10.83;8.93;;;2.10;69.60;;;;;;5021765;28;20234;-88
2022/02/28 07:46:41;;;;;;;11.53;9.17;;;2.10;69.80;;;;;;4988360;28;20492;-88
2022/02/28 07:49:07;;;;;;;12.13;9.20;;;2.20;69.60;;;;;;5010368;28;20209;-89
2022/02/28 07:51:33;;;;;;;11.47;9.73;;;2.10;69.00;;;;;;5001257;28;20190;-89
2022/02/28 07:53:58;;;;;;;11.33;9.70;;;2.20;68.90;;;;;;5022209;28;20546;-88
2022/02/28 07:56:25;;;;;;;14.43;9.60;;;2.30;69.00;;;;;;5006004;28;20214;-88
2022/02/28 07:58:51;;;;;;;11.73;9.70;;;2.30;70.40;;;;;;5014728;28;20222;-88
2022/02/28 08:01:17;;;;;;;13.87;9.87;;;2.40;68.80;;;;;;5017526;28;20193;-88
2022/02/28 08:03:42;;;;;;;12.63;10.13;;;2.50;67.70;;;;;;5003736;28;20196;-88
2022/02/28 08:06:08;;;;;;;10.77;9.30;;;2.50;68.40;;;;;;5026144;28;20226;-90
2022/02/28 08:08:35;;;;;;;13.47;10.57;;;2.60;67.60;;;;;;5026467;28;20207;-88
2022/02/28 08:11:01;;;;;;;12.80;11.50;;;2.60;67.20;;;;;;5036318;28;20267;-90
2022/02/28 08:13:27;;;;;;;15.73;10.30;;;2.70;66.60;;;;;;5024998;28;20201;-90
2022/02/28 08:15:53;;;;;;;13.43;11.83;;;2.70;66.30;;;;;;5026331;28;20217;-90
2022/02/28 08:18:19;;;;;;;12.43;10.70;;;2.80;67.00;;;;;;5004694;28;20276;-89
2022/02/28 08:20:45;;;;;;;12.30;9.47;;;2.90;66.40;;;;;;5017257;28;20649;-89
2022/02/28 08:23:11;;;;;;;11.50;9.20;;;3.00;66.10;;;;;;5015032;28;20208;-88
2022/02/28 08:25:37;;;;;;;10.93;9.40;;;3.00;64.80;;;;;;5025892;28;20301;-88
2022/02/28 08:28:02;;;;;;;11.57;9.23;;;3.10;64.20;;;;;;4999860;28;20227;-89
2022/02/28 08:30:28;;;;;;;14.47;9.73;;;3.10;64.40;;;;;;4999163;28;20193;-89
2022/02/28 08:32:54;;;;;;;11.27;9.87;;;3.20;63.50;;;;;;5023705;28;20185;-90
2022/02/28 08:35:20;;;;;;;12.87;9.23;;;3.20;63.20;;;;;;5016946;28;20244;-88
2022/02/28 08:37:46;;;;;;;12.27;10.23;;;3.30;64.50;;;;;;5019662;28;20202;-88
2022/02/28 08:40:13;;;;;;;10.37;9.37;;;3.40;63.40;;;;;;5019660;28;20727;-88
2022/02/28 08:42:39;;;;;;;11.57;9.17;;;3.40;63.30;;;;;;5019372;28;20208;-89
2022/02/28 08:45:06;;;;;;;11.50;9.73;;;3.60;63.10;;;;;;5004217;28;20213;-89
2022/02/28 08:47:32;;;;;;;14.73;11.27;;;3.60;62.10;;;;;;5023383;28;20220;-88
2022/02/28 08:50:00;;;;;;;13.27;9.43;;;3.70;62.10;;;;;;5016576;28;20664;-89
2022/02/28 08:52:26;;;;;;;11.20;8.77;;;3.80;62.70;;;;;;5012481;28;20190;-88
2022/02/28 08:54:51;;;;;;;11.27;10.07;;;3.80;62.00;;;;;;4999394;28;20223;-88
2022/02/28 08:57:17;;;;;;;15.00;10.37;;;4.00;60.90;;;;;;5017593;28;20228;-89
2022/02/28 08:59:43;;;;;;;11.67;9.57;;;4.00;61.20;;;;;;5012377;28;20209;-89
2022/02/28 09:02:08;;;;;;;13.00;9.63;;;4.10;60.70;;;;;;5000176;28;20614;-88
2022/02/28 09:04:34;;;;;;;10.60;9.07;;;4.30;59.30;;;;;;5017611;28;20623;-88
2022/02/28 09:07:00;;;;;;;12.17;9.17;;;4.40;59.30;;;;;;5013961;28;20203;-89
2022/02/28 09:09:26;;;;;;;11.67;10.07;;;4.50;60.00;;;;;;5000983;28;20197;-89
2022/02/28 09:11:53;;;;;;;12.00;9.37;;;4.50;60.40;;;;;;5021526;28;20295;-89
2022/02/28 09:14:19;;;;;;;14.03;9.73;;;4.60;59.20;;;;;;5016323;28;20204;-89
2022/02/28 09:16:45;;;;;;;10.73;8.70;;;4.80;57.70;;;;;;5011626;28;20252;-88
2022/02/28 09:19:10;;;;;;;10.83;9.43;;;4.80;58.10;;;;;;5014698;28;20202;-89
2022/02/28 09:21:36;;;;;;;10.03;8.80;;;4.90;57.20;;;;;;5014947;28;20199;-87
2022/02/28 09:24:03;;;;;;;10.87;8.93;;;5.00;56.30;;;;;;4994364;28;20221;-87
2022/02/28 09:26:29;;;;;;;11.60;9.10;;;5.20;55.10;;;;;;5019609;28;20209;-87
2022/02/28 09:28:55;;;;;;;11.57;9.10;;;5.30;55.50;;;;;;5017317;28;20221;-87
2022/02/28 09:31:21;;;;;;;9.63;7.63;;;5.40;55.40;;;;;;5014362;28;20208;-87
2022/02/28 09:33:46;;;;;;;10.43;8.87;;;5.60;52.90;;;;;;5014259;28;20648;-87
2022/02/28 09:36:13;;;;;;;12.23;8.87;;;5.70;53.80;;;;;;4997284;28;20225;-87
2022/02/28 09:38:38;;;;;;;9.93;8.47;;;5.70;54.00;;;;;;5014415;28;20248;-87
2022/02/28 09:41:04;;;;;;;12.10;8.40;;;5.80;52.90;;;;;;5012097;28;20205;-87
2022/02/28 09:43:32;;;;;;;12.03;9.17;;;5.80;53.30;;;;;;4996908;28;20198;-88
2022/02/28 09:46:01;;;;;;;11.67;9.03;;;6.10;52.70;;;;;;5019084;28;20213;-87
2022/02/28 09:48:27;;;;;;;9.97;8.97;;;6.30;52.00;;;;;;5018603;28;20610;-87
2022/02/28 09:50:53;;;;;;;10.07;8.17;;;6.50;51.70;;;;;;4995936;28;20201;-91
2022/02/28 09:53:19;;;;;;;9.53;8.10;;;6.70;50.40;;;;;;5018761;28;20184;-87
2022/02/28 09:55:46;;;;;;;11.27;8.47;;;6.70;50.50;;;;;;4994480;28;20277;-87
2022/02/28 09:58:11;;;;;;;8.93;8.03;;;6.90;48.30;;;;;;5010276;28;20251;-87
2022/02/28 10:00:41;;;;;;;9.03;8.13;;;7.10;48.50;;;;;;5016466;28;20280;-87
2022/02/28 10:03:06;;;;;;;9.33;7.67;;;7.30;48.40;;;;;;5011470;28;20200;-87
2022/02/28 10:05:32;;;;;;;8.77;7.77;;;7.50;46.90;;;;;;4997712;28;20222;-88
2022/02/28 10:08:01;;;;;;;8.97;7.73;;;7.60;46.70;;;;;;5018364;28;20224;-87
2022/02/28 10:10:27;;;;;;;10.20;7.53;;;7.80;45.60;;;;;;5021156;28;20245;-88
2022/02/28 10:12:54;;;;;;;10.13;8.27;;;8.00;43.70;;;;;;4997047;28;20185;-88
2022/02/28 10:15:22;;;;;;;7.70;7.00;;;8.20;44.30;;;;;;5000975;28;20223;-89
2022/02/28 10:17:49;;;;;;;8.63;7.43;;;8.30;41.20;;;;;;5017916;28;20193;-89
2022/02/28 10:20:29;;;;;;;8.30;7.33;;;8.60;41.60;;;;;;4995704;28;20538;-89
2022/02/28 10:23:02;;;;;;;8.43;7.20;;;8.70;42.00;;;;;;5009033;28;20189;-87
2022/02/28 10:25:43;;;;;;;8.47;7.57;;;8.70;41.00;;;;;;5024773;28;20232;-88
2022/02/28 10:28:24;;;;;;;8.70;7.83;;;8.80;41.40;;;;;;5010439;28;20204;-87
2022/02/28 10:30:52;;;;;;;8.70;7.77;;;9.00;43.00;;;;;;4998525;28;20267;-88
2022/02/28 10:33:17;;;;;;;9.17;8.33;;;9.20;40.60;;;;;;5011485;28;20568;-87
2022/02/28 10:36:01;;;;;;;10.23;8.13;;;9.30;41.20;;;;;;5017406;28;21303;-87
2022/02/28 10:38:32;;;;;;;9.73;8.63;;;9.50;41.00;;;;;;5021457;28;20206;-87
2022/02/28 10:41:00;;;;;;;9.27;8.13;;;9.60;41.40;;;;;;5024040;28;20220;-90
2022/02/28 10:43:29;;;;;;;9.90;8.60;;;9.90;39.40;;;;;;4997908;28;20248;-87
2022/02/28 10:45:57;;;;;;;9.47;7.97;;;9.70;39.80;;;;;;5017887;28;20220;-88
2022/02/28 10:48:25;;;;;;;9.93;8.20;;;9.80;40.20;;;;;;4999692;28;20217;-87
2022/02/28 10:50:51;;;;;;;9.87;8.63;;;9.90;39.70;;;;;;5014078;28;20700;-88
2022/02/28 10:53:20;;;;;;;9.40;8.37;;;10.10;39.70;;;;;;5019799;28;20185;-88
2022/02/28 10:55:48;;;;;;;8.13;7.43;;;10.30;39.50;;;;;;5017350;28;20216;-88
2022/02/28 10:58:24;;;;;;;8.13;7.30;;;10.70;39.00;;;;;;5009724;28;20248;-87
2022/02/28 11:00:50;;;;;;;8.17;7.33;;;10.70;38.70;;;;;;5008807;28;20276;-87
2022/02/28 11:03:16;;;;;;;9.27;8.37;;;10.70;37.00;;;;;;4993457;28;20191;-88
2022/02/28 11:06:08;;;;;;;8.73;7.70;;;10.80;38.50;;;;;;5010761;28;20209;-87
2022/02/28 11:08:42;;;;;;;8.93;8.10;;;11.00;37.80;;;;;;4992506;28;20222;-87
2022/02/28 11:11:10;;;;;;;8.87;7.97;;;11.10;37.40;;;;;;5010918;28;20187;-87
2022/02/28 11:13:36;;;;;;;9.13;8.03;;;11.20;36.80;;;;;;5014483;28;20192;-87
2022/02/28 11:16:02;;;;;;;9.67;8.77;;;11.40;37.00;;;;;;4999101;28;20230;-87
2022/02/28 11:18:28;;;;;;;11.00;9.03;;;11.40;36.30;;;;;;4991202;28;20206;-87
2022/02/28 11:20:55;;;;;;;10.73;8.83;;;11.40;36.60;;;;;;5003182;28;20251;-90
2022/02/28 11:23:22;;;;;;;9.37;8.47;;;11.10;36.60;;;;;;5014422;28;20296;-87
2022/02/28 11:25:48;;;;;;;9.63;8.50;;;11.10;37.30;;;;;;4993386;28;20221;-88
2022/02/28 11:28:15;;;;;;;10.40;9.30;;;11.30;38.10;;;;;;5011311;28;20280;-87
2022/02/28 11:30:41;;;;;;;11.87;9.67;;;11.50;37.00;;;;;;5017359;28;20609;-87
2022/02/28 11:33:12;;;;;;;9.83;8.93;;;11.50;36.80;;;;;;5013055;28;20699;-88
2022/02/28 11:35:38;;;;;;;10.07;9.07;;;11.50;36.40;;;;;;5015606;28;20243;-87
2022/02/28 11:38:15;;;;;;;8.90;8.07;;;11.40;36.30;;;;;;5008981;28;20676;-88
2022/02/28 11:40:42;;;;;;;11.43;9.73;;;11.50;36.90;;;;;;5019042;28;20193;-88
2022/02/28 11:43:17;;;;;;;10.60;9.50;;;11.60;36.30;;;;;;5015492;28;20292;-89
2022/02/28 11:46:05;;;;;;;9.53;8.63;;;11.50;36.20;;;;;;4983421;28;20214;-87
2022/02/28 11:48:34;;;;;;;12.17;9.17;;;11.60;36.20;;;;;;5003374;28;20214;-87
2022/02/28 11:51:09;;;;;;;12.53;8.93;;;12.00;36.10;;;;;;5017025;28;20248;-88
2022/02/28 11:53:39;;;;;;;11.50;8.57;;;12.30;35.10;;;;;;5011517;28;20187;-88
2022/02/28 11:56:17;;;;;;;12.47;8.40;;;12.50;35.10;;;;;;5016797;28;20218;-88
2022/02/28 11:58:58;;;;;;;9.37;8.47;;;12.60;34.60;;;;;;5018432;28;20595;-89
2022/02/28 12:01:35;;;;;;;9.23;8.33;;;12.50;34.60;;;;;;5009707;28;20583;-87
2022/02/28 12:04:29;;;;;;;14.30;12.03;;;12.30;34.60;;;;;;5008883;28;20203;-89
2022/02/28 12:06:59;;;;;;;9.60;8.40;;;12.40;34.80;;;;;;5021866;28;20719;-88
2022/02/28 12:09:36;;;;;;;10.33;9.37;;;12.70;34.20;;;;;;5010051;28;20187;-88
2022/02/28 12:12:25;;;;;;;9.93;8.93;;;12.90;33.70;;;;;;5011446;28;20183;-88
2022/02/28 12:14:57;;;;;;;10.63;9.57;;;12.90;34.10;;;;;;4993069;28;20218;-89
2022/02/28 12:20:28;;;;;;;9.77;8.77;;;13.00;33.80;;;;;;5026422;28;20220;-90
2022/02/28 12:25:34;;;;;;;11.00;9.80;;;12.90;33.40;;;;;;5022421;28;20203;-88
2022/02/28 12:28:26;;;;;;;11.73;9.77;;;13.00;33.30;;;;;;5013443;28;20208;-88
2022/02/28 12:31:01;;;;;;;10.87;9.87;;;13.40;32.80;;;;;;5023473;28;20194;-88
2022/02/28 12:33:39;;;;;;;12.80;9.87;;;13.50;33.00;;;;;;5006599;28;20196;-88
2022/02/28 12:36:08;;;;;;;10.47;9.37;;;13.80;32.40;;;;;;5021645;28;20206;-88
2022/02/28 12:38:40;;;;;;;11.57;10.43;;;13.60;32.70;;;;;;5025019;28;20201;-88
2022/02/28 12:41:11;;;;;;;12.10;11.00;;;13.90;32.30;;;;;;5005570;28;20201;-87
2022/02/28 12:43:38;;;;;;;11.80;10.60;;;14.00;31.50;;;;;;5007512;28;20205;-88
2022/02/28 12:46:10;;;;;;;12.40;11.17;;;13.80;31.90;;;;;;5006392;28;20253;-89
2022/02/28 12:48:38;;;;;;;12.40;11.23;;;14.20;32.50;;;;;;5016832;28;20268;-88
2022/02/28 12:51:05;;;;;;;12.07;10.83;;;14.50;31.40;;;;;;5034091;28;20181;-90
2022/02/28 12:53:33;;;;;;;12.57;9.93;;;14.10;31.50;;;;;;5030684;28;20647;-89
2022/02/28 12:56:04;;;;;;;11.60;10.50;;;14.10;31.30;;;;;;5029961;28;20225;-88